This is the latest recevied weather packets stored in our database for station/object VK6DUG. If no packets are shown the sender has not sent any weather packets the latest 10 day(s).
| Time | Temp. | Humidity | Pressure | Rain* | Wind** | Luminosity | Snow |
|---|---|---|---|---|---|---|---|
| 1777720222 | 12.22° C | 77% | 1028 hPa | 0 mm | - | 0 W/m² | - |
| 1777719619 | 12.22° C | 76% | 1028 hPa | 0 mm | - | 0 W/m² | - |
| 1777719017 | 12.78° C | 76% | 1028 hPa | 0 mm | - | 0 W/m² | - |
| 1777718434 | 12.78° C | 74% | 1028 hPa | 0 mm | - | 0 W/m² | - |
| 1777717831 | 13.33° C | 73% | 1027.8 hPa | 0 mm | - | 0 W/m² | - |
| 1777717228 | 13.89° C | 72% | 1027.8 hPa | 0 mm | - | 0 W/m² | - |
| 1777716625 | 14.44° C | 70% | 1027.7 hPa | 0 mm | - | 0 W/m² | - |
| 1777716022 | 15° C | 68% | 1027.4 hPa | 0 mm | - | 0 W/m² | - |
| 1777715420 | 15.56° C | 67% | 1027.4 hPa | 0 mm | - | 1 W/m² | - |
| 1777714816 | 16.11° C | 65% | 1027.3 hPa | 0 mm | - | 4 W/m² | - |
| 1777714234 | 16.11° C | 64% | 1027.3 hPa | 0 mm | - | 11 W/m² | - |
| 1777713632 | 16.11° C | 64% | 1027.4 hPa | 0 mm | - | 22 W/m² | - |
| 1777713029 | 16.67° C | 65% | 1027.3 hPa | 0 mm | - | 35 W/m² | - |
| 1777712425 | 16.67° C | 63% | 1027.3 hPa | 0 mm | - | 37 W/m² | - |
| 1777711822 | 16.67° C | 63% | 1027.3 hPa | 0 mm | - | 36 W/m² | - |
| 1777711220 | 16.67° C | 63% | 1027.2 hPa | 0 mm | - | 64 W/m² | - |
| 1777710617 | 16.67° C | 63% | 1027.2 hPa | 0 mm | - | 81 W/m² | - |
| 1777710034 | 17.22° C | 62% | 1027.2 hPa | 0 mm | - | 99 W/m² | - |
| 1777709431 | 16.67° C | 61% | 1027.2 hPa | 0 mm | - | 102 W/m² | - |
| 1777708827 | 16.67° C | 60% | 1027.3 hPa | 0 mm | - | 102 W/m² | - |
| 1777708224 | 17.22° C | 58% | 1027.2 hPa | 0 mm | - | 111 W/m² | - |
| 1777707621 | 17.22° C | 56% | 1027.2 hPa | 0 mm | - | 219 W/m² | - |
| 1777707019 | 17.22° C | 57% | 1027.2 hPa | 0 mm | - | 127 W/m² | - |
| 1777706416 | 17.22° C | 57% | 1027.2 hPa | 0 mm | - | 121 W/m² | - |
| 1777705833 | 17.22° C | 56% | 1027.2 hPa | 0 mm | - | 355 W/m² | - |
* Rain latest hour (hover to see other rain measurements)
** Current wind speed in m/s (hover to see current wind gust speed)